Time,TemperatureC,DewpointC,PressurehPa,WindDirection,WindDirectionDegrees,WindSpeedKMH,WindSpeedGustKMH,Humidity,HourlyPrecipMM,Conditions,Clouds,dailyrainMM,SolarRadiationWatts/m^2,UVIndex,SoftwareType,DateUTC
2026-05-04 00:04:59,7,6,1032.1,East,94,0,0,93,0.0,,,0.0,0,0,n/a,2026-05-03T12:04:59Z
2026-05-04 00:09:55,6.9,5.8,1032.0,East,94,0,0,93,0.0,,,0.0,0,0,n/a,2026-05-03T12:09:55Z
2026-05-04 00:14:58,6.7,5.7,1032.0,East,94,0,0,93,0.0,,,0.0,0,0,n/a,2026-05-03T12:14:58Z
2026-05-04 00:19:57,6.6,5.6,1032.0,East,94,0,0,93,0.0,,,0.0,0,0,n/a,2026-05-03T12:19:57Z
2026-05-04 00:24:58,6.5,5.4,1032.0,East,94,0.6,3.7,93,0.0,,,0.0,0,0,n/a,2026-05-03T12:24:58Z
2026-05-04 00:29:55,6.4,5.3,1031.9,East,94,0.6,1.9,93,0.0,,,0.0,0,0,n/a,2026-05-03T12:29:55Z
2026-05-04 00:34:58,6.3,5.2,1031.8,East,94,0,1.9,93,0.0,,,0.0,0,0,n/a,2026-05-03T12:34:58Z
2026-05-04 00:39:58,6.1,5.1,1031.8,East,94,0.1,1.6,93,0.0,,,0.0,0,0,n/a,2026-05-03T12:39:58Z
2026-05-04 00:44:55,5.9,4.9,1031.8,East,94,1.2,3.7,93,0.0,,,0.0,0,0,n/a,2026-05-03T12:44:55Z
2026-05-04 00:49:59,5.8,4.7,1031.9,East,94,0.7,3.7,93,0.0,,,0.0,0,0,n/a,2026-05-03T12:49:59Z
2026-05-04 00:54:59,5.6,4.6,1031.8,East,94,0.2,1.9,93,0.0,,,0.0,0,0,n/a,2026-05-03T12:54:59Z
2026-05-04 00:59:58,5.5,4.4,1031.7,East,94,1,1.9,93,0.0,,,0.0,0,0,n/a,2026-05-03T12:59:58Z
2026-05-04 01:04:54,5.3,4.3,1031.7,East,94,0,1.6,93,0.0,,,0.0,0,0,n/a,2026-05-03T13:04:54Z
2026-05-04 01:09:54,5.2,4.2,1031.7,East,94,0.1,1.9,93,0.0,,,0.0,0,0,n/a,2026-05-03T13:09:54Z
2026-05-04 01:14:58,5.2,4.1,1031.7,East,94,0,1.6,93,0.0,,,0.0,0,0,n/a,2026-05-03T13:14:58Z
2026-05-04 01:19:56,5.1,4.1,1031.6,East,94,1,1.9,93,0.0,,,0.0,0,0,n/a,2026-05-03T13:19:56Z
2026-05-04 01:24:54,5.1,4,1031.6,East,94,1,1.9,93,0.0,,,0.0,0,0,n/a,2026-05-03T13:24:54Z
2026-05-04 01:29:58,5,3.9,1031.7,East,94,0.8,1.9,93,0.0,,,0.0,0,0,n/a,2026-05-03T13:29:58Z
2026-05-04 01:34:56,4.9,3.9,1031.7,East,94,0.3,1.9,93,0.0,,,0.0,0,0,n/a,2026-05-03T13:34:56Z
2026-05-04 01:39:56,4.8,3.8,1031.7,East,94,0,1.9,93,0.0,,,0.0,0,0,n/a,2026-05-03T13:39:56Z
2026-05-04 01:44:55,4.8,3.7,1031.7,East,94,0,0,93,0.0,,,0.0,0,0,n/a,2026-05-03T13:44:55Z
2026-05-04 01:49:54,4.7,3.6,1031.7,East,94,0,1.9,93,0.0,,,0.0,0,0,n/a,2026-05-03T13:49:54Z
2026-05-04 01:54:59,4.7,3.6,1031.7,East,94,0.2,1.9,93,0.0,,,0.0,0,0,n/a,2026-05-03T13:54:59Z
2026-05-04 01:59:56,4.7,3.6,1031.7,East,94,0.1,1.9,93,0.0,,,0.0,0,0,n/a,2026-05-03T13:59:56Z
2026-05-04 02:04:58,4.7,3.6,1031.7,East,94,0.5,3.7,93,0.0,,,0.0,0,0,n/a,2026-05-03T14:04:58Z
2026-05-04 02:09:59,4.7,3.6,1031.6,East,94,0.2,1.9,93,0.0,,,0.0,0,0,n/a,2026-05-03T14:09:59Z
2026-05-04 02:14:57,4.7,3.8,1031.7,East,94,0.5,1.9,93.9,0.0,,,0.0,0,0,n/a,2026-05-03T14:14:57Z
2026-05-04 02:19:55,4.7,3.8,1031.8,East,94,0,0,94,0.0,,,0.0,0,0,n/a,2026-05-03T14:19:55Z
2026-05-04 02:24:58,4.6,3.7,1031.7,East,94,0.5,1.9,94,0.0,,,0.0,0,0,n/a,2026-05-03T14:24:58Z
2026-05-04 02:29:59,4.6,3.7,1031.7,East,94,0.1,1.9,94,0.0,,,0.0,0,0,n/a,2026-05-03T14:29:59Z
2026-05-04 02:34:54,4.6,3.7,1031.7,East,94,0.7,1.9,94,0.0,,,0.0,0,0,n/a,2026-05-03T14:34:54Z
2026-05-04 02:39:57,4.6,3.8,1031.7,East,94,0.1,1.9,94,0.0,,,0.0,0,0,n/a,2026-05-03T14:39:57Z
2026-05-04 02:44:55,4.7,3.8,1031.7,East,94,0.4,1.9,94,0.0,,,0.0,0,0,n/a,2026-05-03T14:44:55Z
2026-05-04 02:49:55,4.7,3.8,1031.7,East,94,0.3,1.9,94,0.0,,,0.0,0,0,n/a,2026-05-03T14:49:55Z
2026-05-04 02:54:55,4.7,3.8,1031.7,East,94,0.1,1.9,94,0.0,,,0.0,0,0,n/a,2026-05-03T14:54:55Z
2026-05-04 02:59:57,4.8,3.9,1031.6,East,94,0.1,1.9,94,0.0,,,0.0,0,0,n/a,2026-05-03T14:59:57Z
2026-05-04 03:04:54,4.8,3.9,1031.5,East,94,0,0,94,0.0,,,0.0,0,0,n/a,2026-05-03T15:04:54Z
2026-05-04 03:09:56,4.8,3.9,1031.4,East,94,0.3,1.9,94,0.0,,,0.0,0,0,n/a,2026-05-03T15:09:56Z
2026-05-04 03:14:57,4.9,4,1031.4,East,94,0.5,1.9,94,0.0,,,0.0,0,0,n/a,2026-05-03T15:14:57Z
2026-05-04 03:19:54,5,4.1,1031.4,East,94,1,3.7,94,0.0,,,0.0,0,0,n/a,2026-05-03T15:19:54Z
2026-05-04 03:24:57,5.1,4.2,1031.4,East,94,0.9,3.7,94,0.0,,,0.0,0,0,n/a,2026-05-03T15:24:57Z
2026-05-04 03:29:59,5.1,4.2,1031.3,East,94,1,3.7,94,0.0,,,0.0,0,0,n/a,2026-05-03T15:29:59Z
2026-05-04 03:34:56,5.2,4.3,1031.3,East,94,0.3,1.9,94,0.0,,,0.0,0,0,n/a,2026-05-03T15:34:56Z
2026-05-04 03:39:55,5.2,4.4,1031.3,East,94,0.7,3.7,94,0.0,,,0.0,0,0,n/a,2026-05-03T15:39:55Z
2026-05-04 03:44:54,5.3,4.4,1031.3,East,94,1.5,5.6,94,0.0,,,0.0,0,0,n/a,2026-05-03T15:44:54Z
2026-05-04 03:49:56,5.5,4.6,1031.3,East,94,1.2,6.4,94,0.0,,,0.0,0,0,n/a,2026-05-03T15:49:56Z
2026-05-04 03:54:58,5.5,4.6,1031.3,East,94,0.3,1.9,94,0.0,,,0.0,0,0,n/a,2026-05-03T15:54:58Z
2026-05-04 03:59:59,5.6,4.7,1031.3,East,94,0.9,3.7,94,0.0,,,0.0,0,0,n/a,2026-05-03T15:59:59Z
2026-05-04 04:04:59,5.6,4.8,1031.3,East,94,0.4,1.9,94,0.0,,,0.0,0,0,n/a,2026-05-03T16:04:59Z
2026-05-04 04:09:54,5.7,4.8,1031.3,East,94,1.1,5.6,94,0.0,,,0.0,0,0,n/a,2026-05-03T16:09:54Z
2026-05-04 04:14:57,5.8,4.9,1031.3,East,94,0.3,5.6,94,0.0,,,0.0,0,0,n/a,2026-05-03T16:14:57Z
2026-05-04 04:19:55,5.8,4.9,1031.3,East,94,1,3.7,94,0.0,,,0.0,0,0,n/a,2026-05-03T16:19:55Z
2026-05-04 04:24:57,5.9,5,1031.3,East,94,1.8,5.6,94,0.0,,,0.0,0,0,n/a,2026-05-03T16:24:57Z
2026-05-04 04:29:53,5.9,5,1031.3,East,94,1,3.7,94,0.0,,,0.0,0,0,n/a,2026-05-03T16:29:53Z
2026-05-04 04:34:56,5.9,5,1031.3,East,94,1.5,5.6,94,0.0,,,0.0,0,0,n/a,2026-05-03T16:34:56Z
2026-05-04 04:39:54,5.9,5.1,1031.3,East,94,0.4,3.7,94,0.0,,,0.0,0,0,n/a,2026-05-03T16:39:54Z
2026-05-04 04:44:58,6,5.1,1031.3,East,94,0.5,1.9,94,0.0,,,0.0,0,0,n/a,2026-05-03T16:44:58Z
2026-05-04 04:49:59,6,5.1,1031.3,East,94,0.4,3.7,94,0.0,,,0.0,0,0,n/a,2026-05-03T16:49:59Z
2026-05-04 04:54:55,6,5.2,1031.4,East,94,0.4,3.7,94,0.0,,,0.0,0,0,n/a,2026-05-03T16:54:55Z
2026-05-04 04:59:58,6.1,5.2,1031.4,East,94,0.7,3.7,94,0.0,,,0.0,0,0,n/a,2026-05-03T16:59:58Z
2026-05-04 05:04:55,6.1,5.2,1031.4,East,94,0.3,3.7,94,0.0,,,0.0,0,0,n/a,2026-05-03T17:04:55Z
2026-05-04 05:09:59,6.2,5.3,1031.4,East,94,0.4,1.9,94,0.0,,,0.0,0,0,n/a,2026-05-03T17:09:59Z
2026-05-04 05:14:57,6.2,5.4,1031.4,East,94,0.1,1.9,94,0.0,,,0.0,0,0,n/a,2026-05-03T17:14:57Z
2026-05-04 05:19:54,6.3,5.4,1031.4,East,94,0.3,1.9,94,0.0,,,0.0,0,0,n/a,2026-05-03T17:19:54Z
2026-05-04 05:24:56,6.4,5.5,1031.4,East,94,0.6,3.7,94,0.0,,,0.0,0,0,n/a,2026-05-03T17:24:56Z
2026-05-04 05:29:58,6.4,5.6,1031.4,East,94,0.6,3.7,94,0.0,,,0.0,0,0,n/a,2026-05-03T17:29:58Z
2026-05-04 05:34:56,6.5,5.7,1031.4,East,94,1.4,3.7,94,0.0,,,0.0,0,0,n/a,2026-05-03T17:34:56Z
2026-05-04 05:39:59,6.7,5.8,1031.4,East,94,1.5,3.7,94,0.0,,,0.0,0,0,n/a,2026-05-03T17:39:59Z
2026-05-04 05:44:56,6.8,5.9,1031.4,East,99,1.4,3.7,94,0.0,,,0.0,0,0,n/a,2026-05-03T17:44:56Z
2026-05-04 05:49:56,6.8,5.9,1031.4,ESE,111,0.5,3.7,94,0.0,,,0.0,0,0,n/a,2026-05-03T17:49:56Z
2026-05-04 05:54:54,6.9,6,1031.4,ESE,111,0.1,3.7,94,0.0,,,0.0,0,0,n/a,2026-05-03T17:54:54Z
2026-05-04 05:59:58,6.9,6,1031.4,ESE,111,0.9,3.7,94,0.0,,,0.0,0,0,n/a,2026-05-03T17:59:58Z
2026-05-04 06:04:54,6.9,6.1,1031.4,ESE,111,0.1,1.9,94,0.0,,,0.0,0,0,n/a,2026-05-03T18:04:54Z
2026-05-04 06:09:57,7,6.1,1031.4,ESE,111,1.1,3.7,94,0.0,,,0.0,0,0,n/a,2026-05-03T18:09:57Z
2026-05-04 06:14:54,7.1,6.2,1031.5,ESE,122,1.1,3.7,94,0.0,,,0.0,0,0,n/a,2026-05-03T18:14:54Z
2026-05-04 06:19:56,7.2,6.3,1031.5,WSW,237,0.7,3.7,94,0.0,,,0.0,0,0,n/a,2026-05-03T18:19:56Z
2026-05-04 06:24:59,7.2,6.4,1031.6,WSW,252,1,3.7,94,0.0,,,0.0,0,0,n/a,2026-05-03T18:24:59Z
2026-05-04 06:29:55,7.3,6.4,1031.6,West,261,1.2,3.7,94,0.0,,,0.0,0,0,n/a,2026-05-03T18:29:55Z
2026-05-04 06:34:58,7.3,6.4,1031.6,West,263,1.3,3.7,94,0.0,,,0.0,0,0,n/a,2026-05-03T18:34:58Z
2026-05-04 06:39:56,7.3,6.4,1031.6,West,263,0.8,1.9,94,0.0,,,0.0,0,0,n/a,2026-05-03T18:39:56Z
2026-05-04 06:44:58,7.3,6.4,1031.6,West,263,0.7,3.7,94,0.0,,,0.0,0,0,n/a,2026-05-03T18:44:58Z
2026-05-04 06:49:55,7.2,6.3,1031.6,West,263,0.4,1.9,94,0.0,,,0.0,0,0,n/a,2026-05-03T18:49:55Z
2026-05-04 06:54:57,7.2,6.3,1031.6,West,263,0.7,3.2,94,0.0,,,0.0,0,0,n/a,2026-05-03T18:54:57Z
2026-05-04 06:59:54,7.2,6.3,1031.7,West,263,0.6,3.7,94,0.0,,,0.0,0,0,n/a,2026-05-03T18:59:54Z
2026-05-04 07:04:58,7.1,6.2,1031.7,West,263,0.8,3.7,94,0.0,,,0.0,0,0,n/a,2026-05-03T19:04:58Z
2026-05-04 07:09:58,7.1,6.2,1031.7,West,263,0.6,1.9,94,0.0,,,0.0,0,0,n/a,2026-05-03T19:09:58Z
2026-05-04 07:14:55,7.1,6.2,1031.7,West,263,0.6,3.7,94,0.0,,,0.0,0,0,n/a,2026-05-03T19:14:55Z
2026-05-04 07:19:55,7,6.1,1031.7,West,263,1.1,3.7,94,0.0,,,0.0,0,0,n/a,2026-05-03T19:19:55Z
2026-05-04 07:24:56,7,6.1,1031.7,West,263,0.8,3.7,94,0.0,,,0.0,0,0,n/a,2026-05-03T19:24:56Z
2026-05-04 07:29:58,7,6.1,1031.7,West,263,1.2,3.7,94,0.0,,,0.0,0,0,n/a,2026-05-03T19:29:58Z
2026-05-04 07:34:56,7,6.1,1031.7,West,263,1.3,3.7,94,0.0,,,0.0,5,0,n/a,2026-05-03T19:34:56Z
2026-05-04 07:39:54,7,6.1,1031.8,West,263,1.5,3.7,94,0.0,,,0.0,7,0,n/a,2026-05-03T19:39:54Z
2026-05-04 07:44:57,7.1,6.2,1031.9,West,263,1,3.7,94,0.0,,,0.0,11,0,n/a,2026-05-03T19:44:57Z
2026-05-04 07:49:58,7.1,6.2,1032.0,West,263,1.1,3.7,94,0.0,,,0.0,12,0,n/a,2026-05-03T19:49:58Z
2026-05-04 07:54:54,7.1,6.2,1032.0,West,263,0.5,3.7,94,0.0,,,0.0,16,0,n/a,2026-05-03T19:54:54Z
2026-05-04 07:59:58,7.2,6.3,1032.0,West,263,0.7,3.7,94,0.0,,,0.0,18,0,n/a,2026-05-03T19:59:58Z
2026-05-04 08:04:54,7.2,6.3,1032.1,West,263,1.1,3.7,94,0.0,,,0.0,21,0,n/a,2026-05-03T20:04:54Z
2026-05-04 08:09:59,7.3,6.4,1032.2,West,263,0.7,3.7,94,0.0,,,0.0,23,0,n/a,2026-05-03T20:09:59Z
2026-05-04 08:14:56,7.3,6.4,1032.2,West,263,1.4,4.8,94,0.0,,,0.0,28,0,n/a,2026-05-03T20:14:56Z
2026-05-04 08:19:58,7.3,6.5,1032.2,West,263,2.2,5.6,94,0.0,,,0.0,35,0,n/a,2026-05-03T20:19:58Z
2026-05-04 08:24:55,7.4,6.5,1032.3,West,264,2.3,5.6,94,0.0,,,0.0,37,0,n/a,2026-05-03T20:24:55Z
2026-05-04 08:29:57,7.5,6.6,1032.4,West,265,1.3,3.7,94,0.0,,,0.0,37,0,n/a,2026-05-03T20:29:57Z
2026-05-04 08:34:54,7.5,6.7,1032.4,West,265,0.7,3.7,94,0.0,,,0.0,42,0,n/a,2026-05-03T20:34:54Z
2026-05-04 08:39:58,7.6,6.7,1032.5,West,265,1.1,3.7,94,0.0,,,0.0,44,0,n/a,2026-05-03T20:39:58Z
2026-05-04 08:44:54,7.7,6.8,1032.5,West,265,1.7,3.7,94,0.0,,,0.0,53,0,n/a,2026-05-03T20:44:54Z
2026-05-04 08:49:55,7.8,6.9,1032.5,West,263,1.7,5.6,94,0.0,,,0.0,53,0,n/a,2026-05-03T20:49:55Z
2026-05-04 08:54:57,7.8,6.9,1032.5,West,259,1.3,3.7,94,0.0,,,0.0,56,0,n/a,2026-05-03T20:54:57Z
2026-05-04 08:59:54,7.9,7,1032.4,West,259,0.5,3.7,94,0.0,,,0.0,63,0,n/a,2026-05-03T20:59:54Z
2026-05-04 09:04:56,7.9,7.1,1032.4,West,278,1.2,3.7,94,0.0,,,0.0,67,0,n/a,2026-05-03T21:04:56Z
2026-05-04 09:09:58,8,7.1,1032.4,West,281,1.1,3.7,94,0.0,,,0.0,69,0,n/a,2026-05-03T21:09:58Z
2026-05-04 09:14:55,8.1,7.2,1032.4,West,274,1.4,5.6,94,0.0,,,0.0,72,0,n/a,2026-05-03T21:14:55Z
2026-05-04 09:19:57,8.1,7.3,1032.4,West,277,1.4,3.7,94,0.0,,,0.0,77,0,n/a,2026-05-03T21:19:57Z
2026-05-04 09:24:59,8.2,7.3,1032.5,West,264,2.1,3.7,94,0.0,,,0.0,79,0,n/a,2026-05-03T21:24:59Z
2026-05-04 09:29:56,8.3,7.4,1032.4,West,261,2.1,5.6,94,0.0,,,0.0,81,0,n/a,2026-05-03T21:29:56Z
2026-05-04 09:34:58,8.4,7.5,1032.4,WSW,257,2.3,5.6,94,0.0,,,0.0,83,0,n/a,2026-05-03T21:34:58Z
2026-05-04 09:39:58,8.4,7.5,1032.5,West,265,2.6,9.7,94,0.0,,,0.0,86,0,n/a,2026-05-03T21:39:58Z
2026-05-04 09:44:54,8.4,7.6,1032.5,West,267,2.6,9.3,94,0.0,,,0.0,95,0,n/a,2026-05-03T21:44:54Z
2026-05-04 09:49:57,8.5,7.6,1032.5,West,265,2.6,5.6,94,0.0,,,0.0,97,0,n/a,2026-05-03T21:49:57Z
2026-05-04 09:54:59,8.5,7.7,1032.5,WSW,257,2.1,3.7,94,0.0,,,0.0,97,0.5,n/a,2026-05-03T21:54:59Z
2026-05-04 09:59:55,8.7,7.8,1032.5,WSW,258,1.9,5.6,94,0.0,,,0.0,105,0.5,n/a,2026-05-03T21:59:55Z
2026-05-04 10:04:58,8.7,7.8,1032.5,West,266,2.7,5.6,94,0.0,,,0.0,102,0.5,n/a,2026-05-03T22:04:58Z
2026-05-04 10:09:59,8.7,7.9,1032.5,West,267,1.6,4.8,94,0.0,,,0.0,104,0.5,n/a,2026-05-03T22:09:59Z
2026-05-04 10:14:56,8.8,7.9,1032.6,West,268,2.2,5.6,94,0.0,,,0.0,98,0.5,n/a,2026-05-03T22:14:56Z
2026-05-04 10:19:58,8.8,7.9,1032.5,West,260,2.5,5.6,94,0.0,,,0.0,93,0.5,n/a,2026-05-03T22:19:58Z